createdAt,value
2022-08-29T00:01:01.059Z,21.88
2022-08-29T00:06:27.345Z,21.93
2022-08-29T00:11:51.430Z,21.96
2022-08-29T00:17:15.507Z,21.99
2022-08-29T00:22:40.439Z,22.00
2022-08-29T00:28:04.977Z,21.97
2022-08-29T00:33:29.197Z,21.93
2022-08-29T00:38:55.491Z,21.89
2022-08-29T00:44:22.098Z,21.77
2022-08-29T00:49:46.380Z,21.76
2022-08-29T00:55:13.958Z,21.75
2022-08-29T01:00:38.998Z,21.71
2022-08-29T01:06:04.026Z,21.65
2022-08-29T01:11:49.062Z,21.59
2022-08-29T01:17:13.538Z,21.54
2022-08-29T01:22:44.751Z,21.50
2022-08-29T01:28:13.881Z,21.52
2022-08-29T01:33:41.205Z,21.50
2022-08-29T01:39:05.761Z,21.43
2022-08-29T01:44:31.586Z,21.38
2022-08-29T01:49:57.097Z,21.31
2022-08-29T01:55:22.206Z,21.22
2022-08-29T02:00:48.652Z,21.03
2022-08-29T02:06:13.146Z,20.82
2022-08-29T02:11:38.855Z,20.78
2022-08-29T02:17:08.334Z,20.78
2022-08-29T02:22:35.936Z,20.75
2022-08-29T02:28:03.548Z,20.54
2022-08-29T02:33:29.680Z,20.44
2022-08-29T02:38:55.816Z,20.45
2022-08-29T02:44:20.540Z,20.51
2022-08-29T02:49:46.134Z,20.55
2022-08-29T02:55:12.674Z,20.60
2022-08-29T03:00:37.659Z,20.67
2022-08-29T03:06:03.617Z,20.71
2022-08-29T03:11:29.953Z,20.71
2022-08-29T03:16:54.715Z,20.64
2022-08-29T03:22:20.143Z,20.46
2022-08-29T03:27:44.725Z,20.47
2022-08-29T03:33:11.608Z,20.49
2022-08-29T03:38:39.403Z,20.59
2022-08-29T03:44:03.770Z,20.72
2022-08-29T03:49:29.805Z,20.89
2022-08-29T03:54:56.366Z,21.07
2022-08-29T04:00:22.738Z,21.22
2022-08-29T04:05:50.961Z,21.30
2022-08-29T04:11:22.007Z,21.22
2022-08-29T04:16:49.978Z,21.30
2022-08-29T04:22:16.157Z,21.28
2022-08-29T04:27:43.041Z,21.43
2022-08-29T04:33:07.714Z,21.76
2022-08-29T04:38:32.293Z,22.12
2022-08-29T04:43:57.914Z,22.37
2022-08-29T04:49:22.468Z,22.57
2022-08-29T04:54:46.927Z,22.82
2022-08-29T05:00:14.083Z,23.07
2022-08-29T05:05:38.414Z,23.40
2022-08-29T05:11:02.924Z,23.68
2022-08-29T05:16:30.015Z,23.91
2022-08-29T05:21:57.970Z,23.99
2022-08-29T05:27:23.322Z,24.26
2022-08-29T05:32:49.258Z,24.54
2022-08-29T05:38:13.381Z,24.84
2022-08-29T05:43:37.916Z,25.14
2022-08-29T05:49:03.506Z,25.34
2022-08-29T05:54:29.941Z,25.65
2022-08-29T05:59:55.113Z,26.27
2022-08-29T06:05:20.367Z,28.16
2022-08-29T06:10:45.345Z,30.73
2022-08-29T06:16:12.011Z,32.93
2022-08-29T06:21:38.156Z,33.99
2022-08-29T06:27:03.188Z,34.57
2022-08-29T06:32:27.748Z,35.99
2022-08-29T06:37:54.669Z,36.86
2022-08-29T06:43:22.882Z,37.33
2022-08-29T06:48:47.313Z,37.54
2022-08-29T06:54:15.544Z,38.46
2022-08-29T06:59:40.143Z,38.29
2022-08-29T07:05:04.141Z,38.52
2022-08-29T07:10:29.578Z,39.04
2022-08-29T07:15:53.638Z,39.54
2022-08-29T07:21:20.930Z,39.84
2022-08-29T07:26:49.679Z,39.81
2022-08-29T07:32:13.651Z,39.73
2022-08-29T07:37:37.897Z,39.94
2022-08-29T07:43:04.733Z,40.00
2022-08-29T07:48:29.074Z,39.95
2022-08-29T07:53:52.937Z,39.77
2022-08-29T07:59:18.799Z,39.51
2022-08-29T08:04:43.803Z,39.02
2022-08-29T08:10:08.909Z,39.22
2022-08-29T08:15:35.219Z,39.58
2022-08-29T08:20:59.139Z,38.97
2022-08-29T08:26:23.986Z,37.41
2022-08-29T08:31:50.988Z,37.52
2022-08-29T08:37:15.980Z,37.35
2022-08-29T08:42:50.730Z,36.78
2022-08-29T08:48:19.605Z,36.73
2022-08-29T08:53:44.730Z,36.65
2022-08-29T08:59:11.589Z,36.66
2022-08-29T09:04:44.098Z,37.21
2022-08-29T09:10:12.019Z,37.55
2022-08-29T09:15:40.522Z,37.39
2022-08-29T09:21:29.937Z,37.38
2022-08-29T09:26:52.641Z,37.47
2022-08-29T09:32:22.112Z,37.10
2022-08-29T09:37:55.782Z,37.13
2022-08-29T09:43:24.238Z,36.74
2022-08-29T09:48:49.109Z,36.93
2022-08-29T09:54:24.743Z,36.46
2022-08-29T09:59:50.427Z,36.75
2022-08-29T10:05:27.917Z,36.83
2022-08-29T10:10:56.706Z,37.14
2022-08-29T10:16:26.693Z,37.47
2022-08-29T10:21:56.287Z,37.17
2022-08-29T10:27:26.564Z,36.92
2022-08-29T10:33:08.236Z,37.09
2022-08-29T10:38:45.252Z,37.07
2022-08-29T10:49:54.304Z,36.75
2022-08-29T10:55:21.416Z,37.07
2022-08-29T11:00:48.418Z,36.68
2022-08-29T11:06:14.250Z,36.23
2022-08-29T11:11:41.482Z,36.16
2022-08-29T11:17:08.813Z,36.45
2022-08-29T11:22:36.104Z,36.70
2022-08-29T11:28:05.128Z,36.97
2022-08-29T11:33:33.744Z,37.01
2022-08-29T11:39:10.072Z,36.53
2022-08-29T11:44:35.834Z,35.91
2022-08-29T11:50:05.117Z,36.28
2022-08-29T11:55:33.367Z,36.45
2022-08-29T12:00:58.450Z,36.65
2022-08-29T12:06:29.953Z,36.82
2022-08-29T12:12:13.660Z,36.73
2022-08-29T12:18:03.822Z,36.84
2022-08-29T12:23:31.413Z,36.22
2022-08-29T12:29:02.114Z,36.26
2022-08-29T12:34:42.116Z,36.52
2022-08-29T12:40:21.812Z,36.72
2022-08-29T12:45:47.289Z,36.80
2022-08-29T12:51:28.030Z,36.78
2022-08-29T12:56:53.657Z,36.67
2022-08-29T13:02:25.294Z,36.83
2022-08-29T13:07:54.197Z,36.91
2022-08-29T13:13:21.018Z,36.97
2022-08-29T13:19:00.102Z,36.90
2022-08-29T13:24:28.757Z,36.44
2022-08-29T13:30:00.323Z,36.60
2022-08-29T13:35:31.595Z,36.74
2022-08-29T13:40:58.046Z,36.15
2022-08-29T13:46:27.845Z,35.74
2022-08-29T13:51:51.856Z,35.66
2022-08-29T13:57:18.591Z,35.74
2022-08-29T14:02:45.677Z,35.58
2022-08-29T14:08:11.766Z,35.21
2022-08-29T14:13:37.211Z,34.76
2022-08-29T14:19:02.562Z,35.03
2022-08-29T14:24:29.088Z,35.43
2022-08-29T14:29:54.625Z,35.83
2022-08-29T14:35:26.588Z,35.88
2022-08-29T14:40:57.131Z,35.92
2022-08-29T14:46:21.189Z,35.50
2022-08-29T14:51:47.518Z,35.36
2022-08-29T14:57:12.394Z,35.22
2022-08-29T15:02:37.809Z,35.16
2022-08-29T15:08:06.350Z,35.00
2022-08-29T15:13:30.617Z,34.92
2022-08-29T15:24:41.631Z,34.56
2022-08-29T15:30:06.201Z,34.46
2022-08-29T15:35:30.742Z,34.25
2022-08-29T15:40:56.174Z,33.93
2022-08-29T15:46:21.388Z,33.47
2022-08-29T15:51:49.293Z,33.19
2022-08-29T15:57:16.146Z,33.08
2022-08-29T16:02:40.340Z,32.87
2022-08-29T16:08:04.619Z,32.62
2022-08-29T16:13:30.636Z,32.31
2022-08-29T16:18:54.776Z,32.04
2022-08-29T16:24:18.085Z,31.79
2022-08-29T16:29:47.620Z,31.50
2022-08-29T16:35:12.866Z,31.29
2022-08-29T16:40:38.043Z,31.22
2022-08-29T16:46:04.143Z,31.04
2022-08-29T16:51:29.459Z,30.77
2022-08-29T16:56:58.151Z,30.67
2022-08-29T17:02:23.627Z,30.57
2022-08-29T17:07:46.408Z,30.46
2022-08-29T17:13:09.193Z,30.29
2022-08-29T17:18:35.477Z,30.14
2022-08-29T17:23:59.581Z,29.96
2022-08-29T17:29:23.634Z,29.70
2022-08-29T17:34:49.136Z,29.63
2022-08-29T17:40:14.263Z,29.49
2022-08-29T17:45:40.675Z,29.33
2022-08-29T17:51:07.797Z,28.92
2022-08-29T17:56:44.272Z,28.76
2022-08-29T18:02:09.658Z,28.61
2022-08-29T18:07:36.224Z,28.23
2022-08-29T18:13:00.487Z,28.28
2022-08-29T18:18:23.804Z,28.03
2022-08-29T18:23:50.266Z,27.88
2022-08-29T18:29:14.263Z,27.52
2022-08-29T18:34:38.309Z,27.23
2022-08-29T18:40:05.808Z,27.34
2022-08-29T18:45:32.456Z,27.31
2022-08-29T18:51:00.334Z,27.27
2022-08-29T18:56:26.415Z,27.02
2022-08-29T19:01:51.601Z,27.03
2022-08-29T19:07:16.093Z,27.04
2022-08-29T19:12:50.225Z,27.06
2022-08-29T19:18:14.452Z,27.24
2022-08-29T19:23:40.971Z,27.13
2022-08-29T19:29:09.371Z,26.94
2022-08-29T19:34:33.352Z,26.82
2022-08-29T19:39:57.657Z,26.70
2022-08-29T19:45:23.231Z,26.55
2022-08-29T19:50:49.430Z,26.52
2022-08-29T19:56:16.262Z,26.37
2022-08-29T20:01:45.095Z,26.22
2022-08-29T20:07:09.628Z,26.04
2022-08-29T20:12:36.985Z,26.02
2022-08-29T20:18:02.423Z,25.81
2022-08-29T20:23:30.285Z,25.73
2022-08-29T20:28:55.047Z,25.82
2022-08-29T20:34:38.297Z,25.85
2022-08-29T20:40:03.161Z,25.74
2022-08-29T20:45:27.574Z,25.70
2022-08-29T20:51:00.436Z,25.60
2022-08-29T20:56:24.626Z,25.56
2022-08-29T21:01:49.700Z,25.57
2022-08-29T21:07:16.012Z,25.57
2022-08-29T21:12:40.289Z,25.53
2022-08-29T21:18:04.357Z,25.53
2022-08-29T21:23:29.962Z,25.50
2022-08-29T21:28:53.966Z,25.44
2022-08-29T21:34:23.141Z,25.15
2022-08-29T21:39:49.968Z,24.88
2022-08-29T21:45:14.574Z,24.84
2022-08-29T21:50:39.106Z,24.97
2022-08-29T21:56:04.801Z,24.84
2022-08-29T22:01:31.322Z,24.86
2022-08-29T22:06:55.658Z,24.87
2022-08-29T22:12:21.557Z,24.55
2022-08-29T22:17:48.914Z,24.32
2022-08-29T22:23:13.637Z,24.42
2022-08-29T22:28:45.188Z,24.51
2022-08-29T22:34:09.746Z,24.46
2022-08-29T22:39:33.680Z,24.35
2022-08-29T22:45:03.654Z,24.35
2022-08-29T22:50:28.602Z,24.41
2022-08-29T22:55:53.753Z,24.35
2022-08-29T23:01:19.781Z,24.24
2022-08-29T23:06:44.525Z,24.15
2022-08-29T23:12:09.618Z,24.18
2022-08-29T23:17:35.280Z,24.05
2022-08-29T23:22:59.784Z,24.02
2022-08-29T23:28:26.380Z,24.03
2022-08-29T23:33:52.658Z,23.82
2022-08-29T23:39:16.829Z,23.76
2022-08-29T23:44:41.205Z,23.71
2022-08-29T23:50:09.297Z,23.73
2022-08-29T23:55:33.908Z,23.74
